Strona główna
METAR-TAF:

METAR-TAF

Lotnisko :

Port lotniczy Sam Ratulangi

Manado, Indonezja

Szerokość geograficzna: 01-32N, Długość geograficzna: 124-55E, wysokość: 80 m

Aktualna obserwacja pogody

Raport powstał 15 minut temu, godzina 22:00 UTC
Wiatr 1 kt z kierunków zmiennych
Temperatura 23°C
Wilgotność 94%
Ciśnienie 1012 hPa
Widzialność: 8000 m
Mało chmury na wysokości 2000 ft

METAR: WAMM 102200Z VRB01KT 8000 FEW020 23/22 Q1012 NOSIG

czas: 05:15 (22:15 UTC)

Prognoza

Raport powstał 5 godziny i 15 minut temu, godzina 17:00 UTC
Prognoza ważna od 10 godzina 18 UTC do 11 godzina 24 UTC
Wiatr 2 kt z kierunków zmiennych
Widzialność: 9000 m
Rozproszone chmury na wysokości 2000 ft
Stopniowe zmiany
od 11 godzina 00 UTC do 11 godzina 02 UTC
Wiatr 6 kt od północny zachód

TAF: WAMM 101700Z 1018/1124 VRB02KT 9000 SCT020 BECMG 1100/1102 31006KT

Obserwacja i prognoza pogody dla ponad 4000 lotnisk (raport METAR i TAF).

Dostępne stacje oznaczono żółtymi i czerwonymi punktami na mapie.

Najedź kursorem aby zobaczyć nazwę stacji.

Kliknij aby zobaczyć obserwacje i prognozy pogody.

Aby zmienić mapę: kliknij na zielony przycisk z czarnym krzyżykiem, aby powiększyć; na zielony przycisk z myślnikiem, aby pomniejszyć; na zielone strzałki, aby przejść do map sąsiednich.


METAR-TAF: